SKBO/BOG METAR and TAF weather

Enter ICAO airport designator
Station Type Date Time Source
SKBO METAR 2022/06/29 01:00 UTC NOAA

SKBO 290100Z VRB02KT 9000 RA SCT017 BKN070 11/10 Q1028 NOSIG RMK RETSRA A3039


Station Type Date Time Source
SKBO Decoded METAR 2022/06/29 01:00 UTC NOAA

Bogota / Eldorado, Colombia (SKBO) 04-43N 074-09W 2548M
Jun 28, 2022 - 09:00 PM EDT / 2022.06.29 0100 UTC
Wind: Variable at 2 MPH (2 KT):0
Visibility: 5 mile(s):0
Sky conditions: mostly cloudy
Weather: rain; rain with thunder during the past hour
Temperature: 51 F (11 C)
Dew Point: 50 F (10 C)
Relative Humidity: 93%
Pressure (altimeter): 30.36 in. Hg (1028 hPa)
ob: SKBO 290100Z VRB02KT 9000 RA SCT017 BKN070 11/10 Q1028 NOSIG RMK RETSRA A3039
cycle: 1

Station Type Date Time Source
SKBO TAF 2022/06/28 18:33 UTC NOAA

TAF TAF SKBO 281630Z 2818/2918 VRB02KT 9999 BKN020
BECMG 2816/2818 25012KT
TEMPO 2819/2822 RADZ SCT017TCU
BECMG 2901/2903 VRB02KT SCT015 TX19/2818Z TN08/2910Z

Example: see airport list